sensor_id;sensor_type;location;lat;lon;timestamp;P1;durP1;ratioP1;P2;durP2;ratioP2
12577;SDS011;6354;51.026;8.968;2023-04-25T00:01:42;7.23;;;5.37;;
12577;SDS011;6354;51.026;8.968;2023-04-25T00:04:10;10.23;;;5.00;;
12577;SDS011;6354;51.026;8.968;2023-04-25T00:06:39;7.57;;;4.77;;
12577;SDS011;6354;51.026;8.968;2023-04-25T00:09:08;7.40;;;4.80;;
12577;SDS011;6354;51.026;8.968;2023-04-25T00:11:37;5.80;;;5.20;;
12577;SDS011;6354;51.026;8.968;2023-04-25T00:14:05;7.03;;;4.70;;
12577;SDS011;6354;51.026;8.968;2023-04-25T00:16:33;7.10;;;5.27;;
12577;SDS011;6354;51.026;8.968;2023-04-25T00:19:02;7.80;;;4.53;;
12577;SDS011;6354;51.026;8.968;2023-04-25T00:21:30;6.13;;;4.70;;
12577;SDS011;6354;51.026;8.968;2023-04-25T00:23:59;4.97;;;4.47;;
12577;SDS011;6354;51.026;8.968;2023-04-25T00:26:28;5.70;;;4.83;;
12577;SDS011;6354;51.026;8.968;2023-04-25T00:28:56;6.83;;;5.23;;
12577;SDS011;6354;51.026;8.968;2023-04-25T00:31:24;10.40;;;5.00;;
12577;SDS011;6354;51.026;8.968;2023-04-25T00:33:52;7.20;;;5.30;;
12577;SDS011;6354;51.026;8.968;2023-04-25T00:36:20;8.73;;;5.50;;
12577;SDS011;6354;51.026;8.968;2023-04-25T00:38:49;8.53;;;5.77;;
12577;SDS011;6354;51.026;8.968;2023-04-25T00:41:17;6.90;;;5.20;;
12577;SDS011;6354;51.026;8.968;2023-04-25T00:43:47;6.17;;;5.17;;
12577;SDS011;6354;51.026;8.968;2023-04-25T00:46:16;8.37;;;5.60;;
12577;SDS011;6354;51.026;8.968;2023-04-25T00:48:44;8.10;;;5.40;;
12577;SDS011;6354;51.026;8.968;2023-04-25T00:51:13;7.17;;;5.57;;
12577;SDS011;6354;51.026;8.968;2023-04-25T00:53:46;8.20;;;5.50;;
12577;SDS011;6354;51.026;8.968;2023-04-25T00:56:16;8.23;;;5.73;;
12577;SDS011;6354;51.026;8.968;2023-04-25T00:58:46;8.43;;;5.60;;
12577;SDS011;6354;51.026;8.968;2023-04-25T01:01:15;8.27;;;5.07;;
12577;SDS011;6354;51.026;8.968;2023-04-25T01:03:44;8.27;;;5.23;;
12577;SDS011;6354;51.026;8.968;2023-04-25T01:06:16;6.53;;;5.10;;
12577;SDS011;6354;51.026;8.968;2023-04-25T01:08:44;5.77;;;4.90;;
12577;SDS011;6354;51.026;8.968;2023-04-25T01:11:12;6.93;;;4.90;;
12577;SDS011;6354;51.026;8.968;2023-04-25T01:13:40;7.40;;;4.93;;
12577;SDS011;6354;51.026;8.968;2023-04-25T01:16:10;7.97;;;5.50;;
12577;SDS011;6354;51.026;8.968;2023-04-25T01:18:38;5.37;;;4.80;;
12577;SDS011;6354;51.026;8.968;2023-04-25T01:21:09;7.80;;;5.10;;
12577;SDS011;6354;51.026;8.968;2023-04-25T01:23:38;5.97;;;4.80;;
12577;SDS011;6354;51.026;8.968;2023-04-25T01:26:08;10.80;;;5.10;;
12577;SDS011;6354;51.026;8.968;2023-04-25T01:28:37;6.40;;;5.43;;
12577;SDS011;6354;51.026;8.968;2023-04-25T01:31:07;7.20;;;5.50;;
12577;SDS011;6354;51.026;8.968;2023-04-25T01:33:36;8.07;;;5.30;;
12577;SDS011;6354;51.026;8.968;2023-04-25T01:36:04;9.60;;;5.70;;
12577;SDS011;6354;51.026;8.968;2023-04-25T01:38:34;8.93;;;5.23;;
12577;SDS011;6354;51.026;8.968;2023-04-25T01:41:02;10.53;;;5.20;;
12577;SDS011;6354;51.026;8.968;2023-04-25T01:43:31;5.90;;;5.03;;
12577;SDS011;6354;51.026;8.968;2023-04-25T01:45:59;8.63;;;5.13;;
12577;SDS011;6354;51.026;8.968;2023-04-25T01:48:27;7.87;;;5.83;;
12577;SDS011;6354;51.026;8.968;2023-04-25T01:50:55;10.23;;;6.27;;
12577;SDS011;6354;51.026;8.968;2023-04-25T01:53:23;7.83;;;6.17;;
12577;SDS011;6354;51.026;8.968;2023-04-25T01:55:53;10.07;;;5.93;;
12577;SDS011;6354;51.026;8.968;2023-04-25T01:58:21;8.43;;;5.93;;
12577;SDS011;6354;51.026;8.968;2023-04-25T02:00:49;8.00;;;5.60;;
12577;SDS011;6354;51.026;8.968;2023-04-25T02:03:17;8.13;;;5.43;;
12577;SDS011;6354;51.026;8.968;2023-04-25T02:05:45;10.83;;;5.87;;
12577;SDS011;6354;51.026;8.968;2023-04-25T02:08:13;8.37;;;5.93;;
12577;SDS011;6354;51.026;8.968;2023-04-25T02:10:41;8.27;;;5.57;;
12577;SDS011;6354;51.026;8.968;2023-04-25T02:13:11;8.37;;;6.00;;
12577;SDS011;6354;51.026;8.968;2023-04-25T02:15:39;7.17;;;5.57;;
12577;SDS011;6354;51.026;8.968;2023-04-25T02:18:07;8.63;;;5.57;;
12577;SDS011;6354;51.026;8.968;2023-04-25T02:20:36;10.70;;;6.70;;
12577;SDS011;6354;51.026;8.968;2023-04-25T02:23:04;8.33;;;6.40;;
12577;SDS011;6354;51.026;8.968;2023-04-25T02:25:32;12.03;;;6.20;;
12577;SDS011;6354;51.026;8.968;2023-04-25T02:28:00;10.23;;;6.60;;
12577;SDS011;6354;51.026;8.968;2023-04-25T02:30:30;11.27;;;6.97;;
12577;SDS011;6354;51.026;8.968;2023-04-25T02:32:58;10.40;;;6.70;;
12577;SDS011;6354;51.026;8.968;2023-04-25T02:35:26;9.57;;;6.73;;
12577;SDS011;6354;51.026;8.968;2023-04-25T02:37:54;9.10;;;6.87;;
12577;SDS011;6354;51.026;8.968;2023-04-25T02:40:22;8.83;;;6.00;;
12577;SDS011;6354;51.026;8.968;2023-04-25T02:42:50;11.00;;;6.33;;
12577;SDS011;6354;51.026;8.968;2023-04-25T02:45:18;9.37;;;6.47;;
12577;SDS011;6354;51.026;8.968;2023-04-25T02:47:48;10.00;;;6.50;;
12577;SDS011;6354;51.026;8.968;2023-04-25T02:50:16;11.23;;;7.30;;
12577;SDS011;6354;51.026;8.968;2023-04-25T02:52:45;12.20;;;7.50;;
12577;SDS011;6354;51.026;8.968;2023-04-25T02:55:13;10.47;;;6.97;;
12577;SDS011;6354;51.026;8.968;2023-04-25T02:57:41;12.57;;;6.80;;
12577;SDS011;6354;51.026;8.968;2023-04-25T03:00:10;9.17;;;6.20;;
12577;SDS011;6354;51.026;8.968;2023-04-25T03:02:40;8.50;;;6.07;;
12577;SDS011;6354;51.026;8.968;2023-04-25T03:05:10;10.33;;;6.70;;
12577;SDS011;6354;51.026;8.968;2023-04-25T03:07:38;8.83;;;6.37;;
12577;SDS011;6354;51.026;8.968;2023-04-25T03:10:07;12.40;;;6.30;;
12577;SDS011;6354;51.026;8.968;2023-04-25T03:12:35;11.43;;;6.73;;
12577;SDS011;6354;51.026;8.968;2023-04-25T03:15:03;11.40;;;7.53;;
12577;SDS011;6354;51.026;8.968;2023-04-25T03:17:32;10.57;;;7.03;;
12577;SDS011;6354;51.026;8.968;2023-04-25T03:20:00;12.63;;;7.17;;
12577;SDS011;6354;51.026;8.968;2023-04-25T03:22:31;10.87;;;7.70;;
12577;SDS011;6354;51.026;8.968;2023-04-25T03:24:59;12.20;;;7.80;;
12577;SDS011;6354;51.026;8.968;2023-04-25T03:27:27;10.60;;;7.47;;
12577;SDS011;6354;51.026;8.968;2023-04-25T03:29:55;10.63;;;6.50;;
12577;SDS011;6354;51.026;8.968;2023-04-25T03:32:23;13.83;;;6.87;;
12577;SDS011;6354;51.026;8.968;2023-04-25T03:34:52;9.33;;;6.63;;
12577;SDS011;6354;51.026;8.968;2023-04-25T03:37:20;12.40;;;7.17;;
12577;SDS011;6354;51.026;8.968;2023-04-25T03:39:49;10.43;;;7.10;;
12577;SDS011;6354;51.026;8.968;2023-04-25T03:42:17;12.20;;;7.07;;
12577;SDS011;6354;51.026;8.968;2023-04-25T03:44:46;12.40;;;7.60;;
12577;SDS011;6354;51.026;8.968;2023-04-25T03:47:14;8.73;;;6.77;;
12577;SDS011;6354;51.026;8.968;2023-04-25T03:49:42;11.07;;;7.13;;
12577;SDS011;6354;51.026;8.968;2023-04-25T03:52:10;9.63;;;7.03;;
12577;SDS011;6354;51.026;8.968;2023-04-25T03:54:38;11.43;;;7.10;;
12577;SDS011;6354;51.026;8.968;2023-04-25T03:57:08;8.97;;;6.67;;
12577;SDS011;6354;51.026;8.968;2023-04-25T03:59:36;12.87;;;8.23;;
12577;SDS011;6354;51.026;8.968;2023-04-25T04:02:04;10.43;;;7.00;;
12577;SDS011;6354;51.026;8.968;2023-04-25T04:04:32;12.43;;;7.70;;
12577;SDS011;6354;51.026;8.968;2023-04-25T04:07:01;14.00;;;7.93;;
12577;SDS011;6354;51.026;8.968;2023-04-25T04:09:29;11.43;;;7.67;;
12577;SDS011;6354;51.026;8.968;2023-04-25T04:11:56;14.53;;;7.43;;
12577;SDS011;6354;51.026;8.968;2023-04-25T04:14:26;12.80;;;7.40;;
12577;SDS011;6354;51.026;8.968;2023-04-25T04:16:54;12.60;;;8.63;;
12577;SDS011;6354;51.026;8.968;2023-04-25T04:19:22;13.23;;;7.97;;
12577;SDS011;6354;51.026;8.968;2023-04-25T04:21:50;13.57;;;7.27;;
12577;SDS011;6354;51.026;8.968;2023-04-25T04:24:18;12.53;;;7.73;;
12577;SDS011;6354;51.026;8.968;2023-04-25T04:26:46;14.10;;;10.33;;
12577;SDS011;6354;51.026;8.968;2023-04-25T04:29:14;16.63;;;10.77;;
12577;SDS011;6354;51.026;8.968;2023-04-25T04:31:48;13.47;;;10.00;;
12577;SDS011;6354;51.026;8.968;2023-04-25T04:34:17;16.97;;;10.53;;
12577;SDS011;6354;51.026;8.968;2023-04-25T04:36:45;14.53;;;8.70;;
12577;SDS011;6354;51.026;8.968;2023-04-25T04:39:14;12.47;;;8.60;;
12577;SDS011;6354;51.026;8.968;2023-04-25T04:41:42;12.63;;;8.60;;
12577;SDS011;6354;51.026;8.968;2023-04-25T04:44:10;19.50;;;11.57;;
12577;SDS011;6354;51.026;8.968;2023-04-25T04:46:38;16.77;;;9.80;;
12577;SDS011;6354;51.026;8.968;2023-04-25T04:49:10;13.00;;;9.83;;
12577;SDS011;6354;51.026;8.968;2023-04-25T04:51:38;19.73;;;10.40;;
12577;SDS011;6354;51.026;8.968;2023-04-25T04:54:06;12.20;;;9.77;;
12577;SDS011;6354;51.026;8.968;2023-04-25T04:56:34;19.10;;;10.60;;
12577;SDS011;6354;51.026;8.968;2023-04-25T04:59:02;13.53;;;9.40;;
12577;SDS011;6354;51.026;8.968;2023-04-25T05:01:30;15.97;;;8.93;;
12577;SDS011;6354;51.026;8.968;2023-04-25T05:03:58;13.47;;;8.53;;
12577;SDS011;6354;51.026;8.968;2023-04-25T05:06:29;17.80;;;9.00;;
12577;SDS011;6354;51.026;8.968;2023-04-25T05:08:57;14.87;;;8.80;;
12577;SDS011;6354;51.026;8.968;2023-04-25T05:11:26;14.70;;;9.00;;
12577;SDS011;6354;51.026;8.968;2023-04-25T05:13:54;14.23;;;8.20;;
12577;SDS011;6354;51.026;8.968;2023-04-25T05:16:22;21.73;;;8.60;;
12577;SDS011;6354;51.026;8.968;2023-04-25T05:18:50;11.17;;;7.37;;
12577;SDS011;6354;51.026;8.968;2023-04-25T05:21:18;14.30;;;8.20;;
12577;SDS011;6354;51.026;8.968;2023-04-25T05:23:47;14.70;;;8.10;;
12577;SDS011;6354;51.026;8.968;2023-04-25T05:26:16;14.70;;;8.87;;
12577;SDS011;6354;51.026;8.968;2023-04-25T05:28:44;12.23;;;8.47;;
12577;SDS011;6354;51.026;8.968;2023-04-25T05:31:12;13.37;;;8.23;;
12577;SDS011;6354;51.026;8.968;2023-04-25T05:33:40;14.80;;;8.10;;
12577;SDS011;6354;51.026;8.968;2023-04-25T05:36:08;11.73;;;7.30;;
12577;SDS011;6354;51.026;8.968;2023-04-25T05:38:36;13.43;;;7.90;;
12577;SDS011;6354;51.026;8.968;2023-04-25T05:41:05;12.00;;;8.00;;
12577;SDS011;6354;51.026;8.968;2023-04-25T05:43:34;11.87;;;7.93;;
12577;SDS011;6354;51.026;8.968;2023-04-25T05:46:02;11.03;;;7.70;;
12577;SDS011;6354;51.026;8.968;2023-04-25T05:48:30;13.50;;;8.10;;
12577;SDS011;6354;51.026;8.968;2023-04-25T05:50:58;13.10;;;7.80;;
12577;SDS011;6354;51.026;8.968;2023-04-25T05:53:26;11.20;;;8.00;;
12577;SDS011;6354;51.026;8.968;2023-04-25T05:55:54;14.70;;;8.30;;
12577;SDS011;6354;51.026;8.968;2023-04-25T05:58:24;9.77;;;7.97;;
12577;SDS011;6354;51.026;8.968;2023-04-25T06:00:52;11.73;;;8.00;;
12577;SDS011;6354;51.026;8.968;2023-04-25T06:03:20;13.60;;;8.83;;
12577;SDS011;6354;51.026;8.968;2023-04-25T06:05:49;13.43;;;8.37;;
12577;SDS011;6354;51.026;8.968;2023-04-25T06:08:17;12.70;;;8.60;;
12577;SDS011;6354;51.026;8.968;2023-04-25T06:10:45;14.33;;;9.20;;
12577;SDS011;6354;51.026;8.968;2023-04-25T06:13:13;13.37;;;8.30;;
12577;SDS011;6354;51.026;8.968;2023-04-25T06:15:42;13.37;;;8.37;;
12577;SDS011;6354;51.026;8.968;2023-04-25T06:18:10;10.77;;;8.23;;
12577;SDS011;6354;51.026;8.968;2023-04-25T06:20:38;11.97;;;8.37;;
12577;SDS011;6354;51.026;8.968;2023-04-25T06:23:06;10.97;;;7.07;;
12577;SDS011;6354;51.026;8.968;2023-04-25T06:25:34;9.80;;;6.43;;
12577;SDS011;6354;51.026;8.968;2023-04-25T06:28:02;10.03;;;6.93;;
12577;SDS011;6354;51.026;8.968;2023-04-25T06:30:31;9.67;;;6.53;;
12577;SDS011;6354;51.026;8.968;2023-04-25T06:33:00;9.97;;;6.17;;
12577;SDS011;6354;51.026;8.968;2023-04-25T06:35:28;7.80;;;5.70;;
12577;SDS011;6354;51.026;8.968;2023-04-25T06:37:56;8.00;;;5.77;;
12577;SDS011;6354;51.026;8.968;2023-04-25T06:40:24;6.47;;;5.40;;
12577;SDS011;6354;51.026;8.968;2023-04-25T06:42:52;11.63;;;5.20;;
12577;SDS011;6354;51.026;8.968;2023-04-25T06:45:20;8.50;;;5.10;;
12577;SDS011;6354;51.026;8.968;2023-04-25T06:47:48;8.47;;;4.77;;
12577;SDS011;6354;51.026;8.968;2023-04-25T06:50:17;7.73;;;5.40;;
12577;SDS011;6354;51.026;8.968;2023-04-25T06:52:45;8.67;;;5.37;;
12577;SDS011;6354;51.026;8.968;2023-04-25T06:55:13;6.93;;;5.20;;
12577;SDS011;6354;51.026;8.968;2023-04-25T06:57:41;5.70;;;4.83;;
12577;SDS011;6354;51.026;8.968;2023-04-25T07:00:10;9.60;;;6.67;;
12577;SDS011;6354;51.026;8.968;2023-04-25T07:02:38;6.10;;;5.23;;
12577;SDS011;6354;51.026;8.968;2023-04-25T07:05:08;5.90;;;4.97;;
12577;SDS011;6354;51.026;8.968;2023-04-25T07:07:38;6.67;;;5.30;;
12577;SDS011;6354;51.026;8.968;2023-04-25T07:10:06;7.57;;;5.07;;
12577;SDS011;6354;51.026;8.968;2023-04-25T07:12:35;10.03;;;5.97;;
12577;SDS011;6354;51.026;8.968;2023-04-25T07:15:03;6.90;;;4.60;;
12577;SDS011;6354;51.026;8.968;2023-04-25T07:17:34;5.50;;;4.13;;
12577;SDS011;6354;51.026;8.968;2023-04-25T07:20:02;6.47;;;3.90;;
12577;SDS011;6354;51.026;8.968;2023-04-25T07:22:32;9.50;;;3.97;;
12577;SDS011;6354;51.026;8.968;2023-04-25T07:25:04;7.43;;;3.83;;
12577;SDS011;6354;51.026;8.968;2023-04-25T07:27:33;10.40;;;4.27;;
12577;SDS011;6354;51.026;8.968;2023-04-25T07:30:01;12.73;;;5.13;;
12577;SDS011;6354;51.026;8.968;2023-04-25T07:32:29;11.70;;;4.73;;
12577;SDS011;6354;51.026;8.968;2023-04-25T07:34:57;11.00;;;4.33;;
12577;SDS011;6354;51.026;8.968;2023-04-25T07:37:26;6.73;;;4.13;;
12577;SDS011;6354;51.026;8.968;2023-04-25T07:39:53;12.47;;;4.70;;
12577;SDS011;6354;51.026;8.968;2023-04-25T07:42:23;6.90;;;3.70;;
12577;SDS011;6354;51.026;8.968;2023-04-25T07:44:51;9.83;;;4.67;;
12577;SDS011;6354;51.026;8.968;2023-04-25T07:47:19;12.53;;;4.63;;
12577;SDS011;6354;51.026;8.968;2023-04-25T07:49:47;12.00;;;4.67;;
12577;SDS011;6354;51.026;8.968;2023-04-25T07:52:15;9.50;;;4.40;;
12577;SDS011;6354;51.026;8.968;2023-04-25T07:54:43;14.57;;;4.63;;
12577;SDS011;6354;51.026;8.968;2023-04-25T07:57:11;14.00;;;5.07;;
12577;SDS011;6354;51.026;8.968;2023-04-25T07:59:41;13.03;;;4.37;;
12577;SDS011;6354;51.026;8.968;2023-04-25T08:02:09;16.97;;;8.10;;
12577;SDS011;6354;51.026;8.968;2023-04-25T08:04:37;25.17;;;11.03;;
12577;SDS011;6354;51.026;8.968;2023-04-25T08:07:05;9.90;;;4.67;;
12577;SDS011;6354;51.026;8.968;2023-04-25T08:09:33;14.90;;;5.70;;
12577;SDS011;6354;51.026;8.968;2023-04-25T08:12:03;13.23;;;5.00;;
12577;SDS011;6354;51.026;8.968;2023-04-25T08:14:31;8.80;;;3.97;;
12577;SDS011;6354;51.026;8.968;2023-04-25T08:17:03;16.33;;;6.13;;
12577;SDS011;6354;51.026;8.968;2023-04-25T08:19:31;12.47;;;4.00;;
12577;SDS011;6354;51.026;8.968;2023-04-25T08:21:59;14.40;;;4.40;;
12577;SDS011;6354;51.026;8.968;2023-04-25T08:24:27;13.47;;;7.83;;
12577;SDS011;6354;51.026;8.968;2023-04-25T08:26:55;11.17;;;5.27;;
12577;SDS011;6354;51.026;8.968;2023-04-25T08:29:25;11.90;;;5.87;;
12577;SDS011;6354;51.026;8.968;2023-04-25T08:31:54;14.13;;;4.50;;
12577;SDS011;6354;51.026;8.968;2023-04-25T08:34:24;11.63;;;6.83;;
12577;SDS011;6354;51.026;8.968;2023-04-25T08:36:52;10.80;;;4.20;;
12577;SDS011;6354;51.026;8.968;2023-04-25T08:39:20;17.67;;;6.53;;
12577;SDS011;6354;51.026;8.968;2023-04-25T08:41:48;12.07;;;4.87;;
12577;SDS011;6354;51.026;8.968;2023-04-25T08:44:18;9.70;;;3.80;;
12577;SDS011;6354;51.026;8.968;2023-04-25T08:46:48;11.53;;;4.60;;
12577;SDS011;6354;51.026;8.968;2023-04-25T08:49:17;11.70;;;5.00;;
12577;SDS011;6354;51.026;8.968;2023-04-25T08:51:47;14.13;;;6.20;;
12577;SDS011;6354;51.026;8.968;2023-04-25T08:54:17;9.83;;;4.67;;
12577;SDS011;6354;51.026;8.968;2023-04-25T08:57:01;9.40;;;4.03;;
12577;SDS011;6354;51.026;8.968;2023-04-25T08:59:30;9.07;;;3.97;;
12577;SDS011;6354;51.026;8.968;2023-04-25T09:02:00;11.10;;;4.50;;
12577;SDS011;6354;51.026;8.968;2023-04-25T09:04:29;10.37;;;4.07;;
12577;SDS011;6354;51.026;8.968;2023-04-25T09:06:59;11.97;;;3.73;;
12577;SDS011;6354;51.026;8.968;2023-04-25T09:09:27;9.17;;;3.90;;
12577;SDS011;6354;51.026;8.968;2023-04-25T09:11:56;9.90;;;3.67;;
12577;SDS011;6354;51.026;8.968;2023-04-25T09:14:25;13.50;;;4.10;;
12577;SDS011;6354;51.026;8.968;2023-04-25T09:17:03;11.07;;;4.03;;
12577;SDS011;6354;51.026;8.968;2023-04-25T09:19:35;13.50;;;4.00;;
12577;SDS011;6354;51.026;8.968;2023-04-25T09:22:09;11.43;;;3.67;;
12577;SDS011;6354;51.026;8.968;2023-04-25T09:24:37;8.40;;;3.60;;
12577;SDS011;6354;51.026;8.968;2023-04-25T09:27:07;8.53;;;3.77;;
12577;SDS011;6354;51.026;8.968;2023-04-25T09:29:37;11.23;;;3.93;;
12577;SDS011;6354;51.026;8.968;2023-04-25T09:32:10;8.30;;;3.77;;
12577;SDS011;6354;51.026;8.968;2023-04-25T09:34:40;12.53;;;3.90;;
12577;SDS011;6354;51.026;8.968;2023-04-25T09:37:10;9.63;;;3.57;;
12577;SDS011;6354;51.026;8.968;2023-04-25T09:39:39;6.83;;;3.37;;
12577;SDS011;6354;51.026;8.968;2023-04-25T09:42:07;6.00;;;3.57;;
12577;SDS011;6354;51.026;8.968;2023-04-25T09:44:36;8.63;;;3.67;;
12577;SDS011;6354;51.026;8.968;2023-04-25T09:47:09;9.73;;;3.63;;
12577;SDS011;6354;51.026;8.968;2023-04-25T09:49:39;7.87;;;3.70;;
12577;SDS011;6354;51.026;8.968;2023-04-25T09:52:13;7.23;;;3.40;;
12577;SDS011;6354;51.026;8.968;2023-04-25T09:54:42;8.03;;;3.60;;
12577;SDS011;6354;51.026;8.968;2023-04-25T09:57:10;10.00;;;3.50;;
12577;SDS011;6354;51.026;8.968;2023-04-25T09:59:42;7.20;;;3.63;;
12577;SDS011;6354;51.026;8.968;2023-04-25T10:02:11;13.73;;;3.60;;
12577;SDS011;6354;51.026;8.968;2023-04-25T10:04:40;12.17;;;4.03;;
12577;SDS011;6354;51.026;8.968;2023-04-25T10:07:10;6.83;;;3.27;;
12577;SDS011;6354;51.026;8.968;2023-04-25T10:09:39;11.23;;;3.67;;
12577;SDS011;6354;51.026;8.968;2023-04-25T10:12:08;7.90;;;3.30;;
12577;SDS011;6354;51.026;8.968;2023-04-25T10:14:36;10.03;;;3.67;;
12577;SDS011;6354;51.026;8.968;2023-04-25T10:17:05;10.10;;;3.60;;
12577;SDS011;6354;51.026;8.968;2023-04-25T10:19:34;9.60;;;3.63;;
12577;SDS011;6354;51.026;8.968;2023-04-25T10:22:04;9.83;;;3.17;;
12577;SDS011;6354;51.026;8.968;2023-04-25T10:24:36;11.13;;;3.50;;
12577;SDS011;6354;51.026;8.968;2023-04-25T10:27:05;11.83;;;3.93;;
12577;SDS011;6354;51.026;8.968;2023-04-25T10:29:34;11.87;;;3.70;;
12577;SDS011;6354;51.026;8.968;2023-04-25T10:32:03;9.17;;;3.50;;
12577;SDS011;6354;51.026;8.968;2023-04-25T10:34:38;8.77;;;3.13;;
12577;SDS011;6354;51.026;8.968;2023-04-25T10:37:10;7.70;;;2.97;;
12577;SDS011;6354;51.026;8.968;2023-04-25T10:39:40;8.93;;;2.70;;
12577;SDS011;6354;51.026;8.968;2023-04-25T10:42:09;7.13;;;2.80;;
12577;SDS011;6354;51.026;8.968;2023-04-25T10:44:38;7.33;;;2.97;;
12577;SDS011;6354;51.026;8.968;2023-04-25T10:47:07;7.33;;;2.90;;
12577;SDS011;6354;51.026;8.968;2023-04-25T10:49:37;8.73;;;2.70;;
12577;SDS011;6354;51.026;8.968;2023-04-25T10:54:59;8.90;;;4.47;;
12577;SDS011;6354;51.026;8.968;2023-04-25T10:57:31;7.03;;;3.10;;
12577;SDS011;6354;51.026;8.968;2023-04-25T11:00:07;6.83;;;3.63;;
12577;SDS011;6354;51.026;8.968;2023-04-25T11:02:40;7.97;;;2.80;;
12577;SDS011;6354;51.026;8.968;2023-04-25T11:05:15;7.43;;;3.37;;
12577;SDS011;6354;51.026;8.968;2023-04-25T11:07:49;8.90;;;3.20;;
12577;SDS011;6354;51.026;8.968;2023-04-25T11:10:34;7.87;;;3.43;;
12577;SDS011;6354;51.026;8.968;2023-04-25T11:13:02;9.50;;;3.57;;
12577;SDS011;6354;51.026;8.968;2023-04-25T11:15:30;6.90;;;3.47;;
12577;SDS011;6354;51.026;8.968;2023-04-25T11:17:58;8.87;;;4.87;;
12577;SDS011;6354;51.026;8.968;2023-04-25T11:20:27;6.87;;;2.80;;
12577;SDS011;6354;51.026;8.968;2023-04-25T11:22:57;7.33;;;2.77;;
12577;SDS011;6354;51.026;8.968;2023-04-25T11:25:26;7.00;;;3.33;;
12577;SDS011;6354;51.026;8.968;2023-04-25T11:27:57;6.87;;;2.93;;
12577;SDS011;6354;51.026;8.968;2023-04-25T11:30:27;7.43;;;2.83;;
12577;SDS011;6354;51.026;8.968;2023-04-25T11:32:56;7.23;;;3.10;;
12577;SDS011;6354;51.026;8.968;2023-04-25T11:35:25;7.27;;;3.20;;
12577;SDS011;6354;51.026;8.968;2023-04-25T11:37:53;6.53;;;3.57;;
12577;SDS011;6354;51.026;8.968;2023-04-25T11:40:21;7.57;;;2.90;;
12577;SDS011;6354;51.026;8.968;2023-04-25T11:42:49;7.67;;;3.30;;
12577;SDS011;6354;51.026;8.968;2023-04-25T11:45:21;9.10;;;3.00;;
12577;SDS011;6354;51.026;8.968;2023-04-25T11:47:50;8.30;;;3.00;;
12577;SDS011;6354;51.026;8.968;2023-04-25T11:50:19;9.60;;;3.47;;
12577;SDS011;6354;51.026;8.968;2023-04-25T11:52:47;7.90;;;3.40;;
12577;SDS011;6354;51.026;8.968;2023-04-25T11:55:17;8.43;;;3.23;;
12577;SDS011;6354;51.026;8.968;2023-04-25T11:57:47;6.27;;;3.23;;
12577;SDS011;6354;51.026;8.968;2023-04-25T12:00:17;9.00;;;3.07;;
12577;SDS011;6354;51.026;8.968;2023-04-25T12:02:51;6.23;;;3.07;;
12577;SDS011;6354;51.026;8.968;2023-04-25T12:05:23;10.27;;;3.50;;
12577;SDS011;6354;51.026;8.968;2023-04-25T12:08:09;7.00;;;3.00;;
12577;SDS011;6354;51.026;8.968;2023-04-25T12:10:39;7.70;;;3.27;;
12577;SDS011;6354;51.026;8.968;2023-04-25T12:13:19;9.20;;;3.33;;
12577;SDS011;6354;51.026;8.968;2023-04-25T12:15:48;4.67;;;2.80;;
12577;SDS011;6354;51.026;8.968;2023-04-25T12:18:20;10.03;;;3.53;;
12577;SDS011;6354;51.026;8.968;2023-04-25T12:20:50;7.47;;;2.80;;
12577;SDS011;6354;51.026;8.968;2023-04-25T12:23:24;6.50;;;2.90;;
12577;SDS011;6354;51.026;8.968;2023-04-25T12:25:54;6.93;;;2.93;;
12577;SDS011;6354;51.026;8.968;2023-04-25T12:28:23;5.60;;;2.90;;
12577;SDS011;6354;51.026;8.968;2023-04-25T12:30:57;8.53;;;2.90;;
12577;SDS011;6354;51.026;8.968;2023-04-25T12:33:28;7.70;;;3.03;;
12577;SDS011;6354;51.026;8.968;2023-04-25T12:35:57;12.93;;;5.40;;
12577;SDS011;6354;51.026;8.968;2023-04-25T12:38:27;5.87;;;3.00;;
12577;SDS011;6354;51.026;8.968;2023-04-25T12:40:56;6.33;;;3.50;;
12577;SDS011;6354;51.026;8.968;2023-04-25T12:43:25;5.67;;;2.63;;
12577;SDS011;6354;51.026;8.968;2023-04-25T12:45:54;5.37;;;2.70;;
12577;SDS011;6354;51.026;8.968;2023-04-25T12:48:23;5.57;;;2.63;;
12577;SDS011;6354;51.026;8.968;2023-04-25T12:50:52;5.47;;;2.30;;
12577;SDS011;6354;51.026;8.968;2023-04-25T12:53:21;5.33;;;2.63;;
12577;SDS011;6354;51.026;8.968;2023-04-25T12:55:50;5.27;;;2.53;;
12577;SDS011;6354;51.026;8.968;2023-04-25T12:58:18;6.40;;;2.40;;
12577;SDS011;6354;51.026;8.968;2023-04-25T13:00:47;6.80;;;2.67;;
12577;SDS011;6354;51.026;8.968;2023-04-25T13:03:15;6.13;;;2.80;;
12577;SDS011;6354;51.026;8.968;2023-04-25T13:05:44;6.20;;;3.10;;
12577;SDS011;6354;51.026;8.968;2023-04-25T13:08:13;6.50;;;2.30;;
12577;SDS011;6354;51.026;8.968;2023-04-25T13:10:41;5.63;;;2.50;;
12577;SDS011;6354;51.026;8.968;2023-04-25T13:13:09;5.67;;;2.50;;
12577;SDS011;6354;51.026;8.968;2023-04-25T13:15:37;5.37;;;2.50;;
12577;SDS011;6354;51.026;8.968;2023-04-25T13:18:05;6.10;;;2.77;;
12577;SDS011;6354;51.026;8.968;2023-04-25T13:20:33;6.83;;;2.67;;
12577;SDS011;6354;51.026;8.968;2023-04-25T13:23:01;6.40;;;2.90;;
12577;SDS011;6354;51.026;8.968;2023-04-25T13:25:31;7.40;;;2.90;;
12577;SDS011;6354;51.026;8.968;2023-04-25T13:27:59;4.70;;;2.53;;
12577;SDS011;6354;51.026;8.968;2023-04-25T13:30:27;5.63;;;2.80;;
12577;SDS011;6354;51.026;8.968;2023-04-25T13:32:55;6.67;;;2.87;;
12577;SDS011;6354;51.026;8.968;2023-04-25T13:35:23;7.13;;;2.80;;
12577;SDS011;6354;51.026;8.968;2023-04-25T13:37:52;6.73;;;2.90;;
12577;SDS011;6354;51.026;8.968;2023-04-25T13:40:20;7.33;;;3.50;;
12577;SDS011;6354;51.026;8.968;2023-04-25T13:42:52;7.03;;;3.20;;
12577;SDS011;6354;51.026;8.968;2023-04-25T13:45:20;6.13;;;3.43;;
12577;SDS011;6354;51.026;8.968;2023-04-25T13:47:48;7.77;;;2.93;;
12577;SDS011;6354;51.026;8.968;2023-04-25T13:50:16;7.03;;;2.90;;
12577;SDS011;6354;51.026;8.968;2023-04-25T13:52:44;6.67;;;2.70;;
12577;SDS011;6354;51.026;8.968;2023-04-25T13:55:12;6.43;;;2.70;;
12577;SDS011;6354;51.026;8.968;2023-04-25T13:57:41;7.20;;;2.87;;
12577;SDS011;6354;51.026;8.968;2023-04-25T14:00:12;7.23;;;2.70;;
12577;SDS011;6354;51.026;8.968;2023-04-25T14:02:40;5.83;;;2.90;;
12577;SDS011;6354;51.026;8.968;2023-04-25T14:05:09;6.87;;;3.03;;
12577;SDS011;6354;51.026;8.968;2023-04-25T14:07:37;10.60;;;5.07;;
12577;SDS011;6354;51.026;8.968;2023-04-25T14:10:05;5.87;;;3.03;;
12577;SDS011;6354;51.026;8.968;2023-04-25T14:12:34;5.50;;;2.80;;
12577;SDS011;6354;51.026;8.968;2023-04-25T14:15:02;6.70;;;3.07;;
12577;SDS011;6354;51.026;8.968;2023-04-25T14:17:32;6.53;;;2.93;;
12577;SDS011;6354;51.026;8.968;2023-04-25T14:20:00;6.43;;;2.50;;
12577;SDS011;6354;51.026;8.968;2023-04-25T14:22:28;7.33;;;2.50;;
12577;SDS011;6354;51.026;8.968;2023-04-25T14:24:56;5.70;;;2.77;;
12577;SDS011;6354;51.026;8.968;2023-04-25T14:27:24;6.93;;;2.97;;
12577;SDS011;6354;51.026;8.968;2023-04-25T14:29:54;5.60;;;2.60;;
12577;SDS011;6354;51.026;8.968;2023-04-25T14:32:22;7.33;;;3.03;;
12577;SDS011;6354;51.026;8.968;2023-04-25T14:34:51;7.23;;;3.03;;
12577;SDS011;6354;51.026;8.968;2023-04-25T14:37:19;8.37;;;3.40;;
12577;SDS011;6354;51.026;8.968;2023-04-25T14:39:47;6.03;;;3.00;;
12577;SDS011;6354;51.026;8.968;2023-04-25T14:42:15;4.73;;;2.93;;
12577;SDS011;6354;51.026;8.968;2023-04-25T14:44:43;7.70;;;3.47;;
12577;SDS011;6354;51.026;8.968;2023-04-25T14:47:11;6.23;;;2.90;;
12577;SDS011;6354;51.026;8.968;2023-04-25T14:49:40;5.80;;;2.80;;
12577;SDS011;6354;51.026;8.968;2023-04-25T14:52:09;6.47;;;3.03;;
12577;SDS011;6354;51.026;8.968;2023-04-25T14:54:37;9.67;;;3.47;;
12577;SDS011;6354;51.026;8.968;2023-04-25T14:57:05;6.70;;;2.87;;
12577;SDS011;6354;51.026;8.968;2023-04-25T14:59:33;6.87;;;2.77;;
12577;SDS011;6354;51.026;8.968;2023-04-25T15:02:01;5.70;;;2.60;;
12577;SDS011;6354;51.026;8.968;2023-04-25T15:04:30;6.87;;;2.80;;
12577;SDS011;6354;51.026;8.968;2023-04-25T15:06:58;5.93;;;2.50;;
12577;SDS011;6354;51.026;8.968;2023-04-25T15:09:28;4.03;;;2.50;;